Time;durP1;ratioP1;P1;durP2;ratioP2;P2;SDS_P1;SDS_P2;PMS_P1;PMS_P2;Temp;Humidity;BMP_temperature;BMP_pressure;BME280_temperature;BME280_humidity;BME280_pressure;Samples;Min_cycle;Max_cycle;Signal;HPM_P1;HPM_P2
2021/11/09 00:01:12;;;;;;;23.30;10.90;;;;;;;9.52;74.82;99583.31;24467;1360;3026401;-69
2021/11/09 00:03:49;;;;;;;32.50;15.00;;;;;;;9.39;74.57;99590.84;24481;1354;3027577;-70
2021/11/09 00:06:23;;;;;;;32.10;16.10;;;;;;;9.24;74.88;99593.40;24461;1355;3059488;-68
2021/11/09 00:09:56;;;;;;;25.00;13.40;;;;;;;8.78;76.49;99586.84;24475;1356;3050068;-69
2021/11/09 00:11:52;;;;;;;25.10;13.30;;;;;;;8.85;76.60;99597.66;24479;1355;3056291;-71
2021/11/09 00:14:21;;;;;;;28.40;14.20;;;;;;;9.29;75.68;99594.85;24461;1355;3026453;-75
2021/11/09 00:16:50;;;;;;;28.80;15.00;;;;;;;9.30;75.14;99590.27;24446;1359;3026777;-70
2021/11/09 00:19:19;;;;;;;33.80;15.80;;;;;;;9.30;75.09;99585.91;24507;1360;3054497;-68
2021/11/09 00:21:48;;;;;;;24.60;13.70;;;;;;;9.11;75.35;99588.30;24483;1355;3027169;-72
2021/11/09 00:24:17;;;;;;;37.00;17.70;;;;;;;9.02;75.24;99590.16;24460;1363;3048945;-73
2021/11/09 00:26:46;;;;;;;32.30;14.20;;;;;;;8.84;76.03;99584.97;24459;1355;3026107;-70
2021/11/09 00:29:15;;;;;;;29.30;13.70;;;;;;;9.15;75.87;99580.71;24463;1360;3026544;-72
2021/11/09 00:31:45;;;;;;;28.70;13.90;;;;;;;9.72;73.62;99573.64;24456;1357;3026577;-70
2021/11/09 00:34:14;;;;;;;35.00;16.00;;;;;;;9.74;73.11;99572.34;24445;1355;3051204;-70
2021/11/09 00:36:43;;;;;;;27.40;15.70;;;;;;;9.53;73.61;99577.84;24441;1361;3026557;-69
2021/11/09 00:39:12;;;;;;;28.80;15.90;;;;;;;9.28;74.16;99578.67;24465;1356;3048973;-74
2021/11/09 00:41:44;;;;;;;30.60;16.80;;;;;;;9.02;74.79;99576.17;24486;1361;3026289;-72
2021/11/09 00:44:13;;;;;;;27.00;13.20;;;;;;;8.79;75.64;99574.23;24485;1359;3026956;-71
2021/11/09 00:46:42;;;;;;;25.20;14.20;;;;;;;9.27;74.69;99569.95;24438;1360;3049680;-68
2021/11/09 00:49:12;;;;;;;31.30;14.90;;;;;;;9.70;73.54;99567.32;24475;1355;3027427;-73
2021/11/09 00:51:41;;;;;;;30.10;15.50;;;;;;;9.69;73.15;99572.91;24474;1358;3026338;-72
2021/11/09 00:54:14;;;;;;;35.00;15.80;;;;;;;9.46;73.33;99569.85;24481;1358;3049552;-69
2021/11/09 00:56:43;;;;;;;29.50;16.30;;;;;;;9.10;74.48;99581.02;24500;1358;3029839;-69
2021/11/09 00:59:12;;;;;;;30.40;16.60;;;;;;;8.78;75.49;99580.20;24489;1360;3060572;-72
2021/11/09 01:01:41;;;;;;;32.30;15.20;;;;;;;8.57;76.30;99586.85;24457;1358;3027060;-72
2021/11/09 01:04:10;;;;;;;25.60;13.80;;;;;;;8.97;75.41;99583.26;24459;1360;3026493;-71
2021/11/09 01:06:43;;;;;;;25.80;13.00;;;;;;;9.34;73.83;99585.50;24464;1356;3059392;-70
2021/11/09 01:09:13;;;;;;;30.60;16.40;;;;;;;9.31;73.43;99590.58;24497;1360;3026429;-73
2021/11/09 01:11:42;;;;;;;29.60;16.50;;;;;;;9.18;73.67;99592.11;24511;1358;3026973;-68
2021/11/09 01:14:12;;;;;;;31.90;17.10;;;;;;;8.83;74.20;99591.66;24468;1358;3054074;-69
2021/11/09 01:16:42;;;;;;;35.10;20.30;;;;;;;8.78;74.24;99586.48;24454;1360;3028913;-73
2021/11/09 01:19:11;;;;;;;38.30;16.70;;;;;;;8.62;74.72;99590.64;24470;1358;3026454;-68
2021/11/09 01:21:41;;;;;;;36.70;16.50;;;;;;;9.18;73.81;99589.48;24477;1357;3026149;-75
2021/11/09 01:24:11;;;;;;;39.80;18.50;;;;;;;9.37;72.42;99595.30;24435;1360;3026199;-67
2021/11/09 01:26:41;;;;;;;42.70;21.30;;;;;;;9.35;72.04;99595.39;24481;1362;3027477;-73
2021/11/09 01:29:12;;;;;;;46.60;22.50;;;;;;;9.08;72.65;99595.08;24487;1360;3026589;-70
2021/11/09 01:31:43;;;;;;;49.40;23.40;;;;;;;8.94;72.98;99595.29;24466;1360;3027069;-70
2021/11/09 01:34:12;;;;;;;52.00;25.90;;;;;;;8.71;73.41;99601.35;24477;1363;3026440;-74
2021/11/09 01:36:41;;;;;;;46.00;26.10;;;;;;;8.58;73.67;99605.85;24488;1361;3026675;-69
2021/11/09 01:39:11;;;;;;;42.80;20.30;;;;;;;8.50;74.14;99606.95;24423;1363;3054875;-70
2021/11/09 01:41:40;;;;;;;46.30;22.60;;;;;;;8.94;72.99;99599.83;24435;1363;3026444;-68
2021/11/09 01:44:09;;;;;;;49.30;20.40;;;;;;;9.30;71.58;99599.02;24501;1355;3027850;-71
2021/11/09 01:46:38;;;;;;;46.90;22.00;;;;;;;9.34;71.41;99603.16;24450;1359;3054446;-68
2021/11/09 01:49:13;;;;;;;50.20;24.00;;;;;;;9.12;71.67;99612.52;24471;1355;3059066;-71
2021/11/09 01:51:42;;;;;;;47.00;23.80;;;;;;;8.86;72.48;99610.16;24483;1359;3027629;-68
2021/11/09 01:54:11;;;;;;;49.00;24.60;;;;;;;8.60;73.03;99617.46;24482;1360;3052619;-72
2021/11/09 01:56:40;;;;;;;54.20;26.20;;;;;;;8.40;73.73;99618.05;24460;1360;3026585;-71
2021/11/09 01:59:10;;;;;;;42.50;21.30;;;;;;;8.37;74.29;99618.38;24455;1360;3054791;-70
2021/11/09 02:01:38;;;;;;;36.30;15.90;;;;;;;8.85;73.47;99618.45;24494;1356;3027169;-68
2021/11/09 02:04:08;;;;;;;54.00;22.30;;;;;;;9.34;71.22;99614.52;24468;1355;3028916;-69
2021/11/09 02:06:37;;;;;;;45.70;22.60;;;;;;;9.22;71.12;99611.67;24460;1362;3052451;-71
2021/11/09 02:09:11;;;;;;;62.30;25.80;;;;;;;9.08;71.23;99606.12;24471;1351;3027197;-71
2021/11/09 02:11:40;;;;;;;54.70;27.30;;;;;;;8.93;71.49;99608.63;24487;1355;3056185;-72
2021/11/09 02:14:10;;;;;;;67.10;29.00;;;;;;;8.77;71.63;99608.88;24445;1362;3026271;-72
2021/11/09 02:16:39;;;;;;;66.90;29.90;;;;;;;8.56;72.50;99614.48;24455;1355;3026680;-67
2021/11/09 02:19:08;;;;;;;51.80;22.20;;;;;;;8.38;73.43;99615.33;24471;1357;3027268;-68
2021/11/09 02:21:37;;;;;;;41.70;20.00;;;;;;;8.79;72.32;99615.92;24458;1358;3048924;-70
2021/11/09 02:24:07;;;;;;;47.10;21.80;;;;;;;9.21;70.47;99615.91;24419;1357;3026506;-71
2021/11/09 02:26:36;;;;;;;52.00;24.40;;;;;;;9.25;70.29;99619.04;24460;1357;3026397;-72
2021/11/09 02:29:06;;;;;;;55.90;26.50;;;;;;;8.95;70.51;99624.06;24504;1357;3049668;-73
2021/11/09 02:31:35;;;;;;;68.50;27.00;;;;;;;8.85;70.92;99624.74;24504;1360;3026668;-68
2021/11/09 02:34:04;;;;;;;53.60;26.40;;;;;;;8.74;70.89;99610.81;24452;1360;3026868;-73
2021/11/09 02:36:33;;;;;;;59.00;26.00;;;;;;;8.57;71.36;99618.67;24428;1360;3049276;-70
2021/11/09 02:39:02;;;;;;;52.20;24.10;;;;;;;8.49;71.67;99619.52;24408;1351;3027364;-71
2021/11/09 02:41:31;;;;;;;44.50;18.90;;;;;;;8.18;72.85;99625.73;24369;1363;3059584;-69
2021/11/09 02:44:01;;;;;;;45.20;19.50;;;;;;;8.66;71.89;99631.08;24473;1354;3026406;-71
2021/11/09 02:51:48;;;;;;;51.30;23.60;;;;;;;8.85;69.98;99623.19;24451;1357;3026753;-74
2021/11/09 02:54:24;;;;;;;52.00;23.00;;;;;;;8.64;70.61;99622.31;24492;1360;3055711;-73
2021/11/09 02:59:41;;;;;;;52.00;24.60;;;;;;;8.30;71.43;99622.92;24480;1357;3026521;-70
2021/11/09 03:05:40;;;;;;;;;;;;;;;;;;;;;
2021/11/09 03:10:07;;;;;;;43.80;18.20;;;;;;;8.99;69.47;99614.79;24448;1357;3028611;-71
2021/11/09 03:12:39;;;;;;;41.90;20.20;;;;;;;9.07;68.83;99614.02;24390;1355;3055196;-72
2021/11/09 03:15:11;;;;;;;43.30;19.70;;;;;;;8.75;69.39;99618.08;24432;1357;3027926;-66
2021/11/09 03:17:54;;;;;;;50.10;22.30;;;;;;;8.55;69.88;99626.06;24494;1359;3028394;-69
2021/11/09 03:39:57;;;;;;;41.80;20.80;;;;;;;8.19;70.58;99631.28;24466;1354;3050217;-75
2021/11/09 03:45:27;;;;;;;30.10;15.60;;;;;;;8.05;70.31;99618.51;24423;1355;3051983;-71
2021/11/09 03:48:02;;;;;;;36.10;16.20;;;;;;;7.85;70.85;99625.02;24414;1357;3026782;-68
2021/11/09 03:50:33;;;;;;;29.50;14.50;;;;;;;7.69;71.23;99628.38;24503;1363;3066831;-72
2021/11/09 03:58:23;;;;;;;25.10;11.40;;;;;;;8.58;68.38;99627.49;24455;1355;3052832;-73
2021/11/09 04:01:11;;;;;;;28.40;14.40;;;;;;;8.47;68.43;99626.25;24475;1357;3059434;-69
2021/11/09 04:11:32;;;;;;;24.90;13.50;;;;;;;7.54;71.05;99635.16;24440;1361;3026676;-67
2021/11/09 04:29:22;;;;;;;26.60;11.70;;;;;;;8.05;68.74;99651.30;24488;1355;3026824;-73
2021/11/09 04:32:04;;;;;;;33.20;13.40;;;;;;;7.77;69.47;99645.24;24486;1360;3053863;-72
2021/11/09 05:02:39;;;;;;;24.90;11.80;;;;;;;7.61;69.31;99667.28;24453;1357;3055203;-72
2021/11/09 05:10:34;;;;;;;33.20;15.60;;;;;;;7.20;71.02;99694.70;24457;1355;3048402;-71
2021/11/09 05:13:03;;;;;;;30.80;12.80;;;;;;;7.21;71.39;99704.23;24485;1363;3030173;-70
2021/11/09 05:15:34;;;;;;;32.40;12.20;;;;;;;7.90;69.51;99705.39;24462;1357;3057125;-71
2021/11/09 05:18:03;;;;;;;28.70;12.80;;;;;;;8.35;67.95;99708.86;24465;1357;3026597;-72
2021/11/09 05:20:32;;;;;;;29.10;14.30;;;;;;;8.54;66.79;99703.27;24460;1357;3052384;-71
2021/11/09 05:23:01;;;;;;;34.10;15.70;;;;;;;8.50;66.80;99705.19;24483;1357;3026584;-71
2021/11/09 05:25:30;;;;;;;33.30;15.70;;;;;;;8.19;67.44;99711.35;24480;1357;3028284;-72
2021/11/09 05:27:59;;;;;;;33.00;16.00;;;;;;;7.99;68.39;99709.30;24498;1357;3051169;-71
2021/11/09 05:30:28;;;;;;;31.30;14.80;;;;;;;7.85;68.79;99711.00;24457;1357;3028102;-72
2021/11/09 05:32:59;;;;;;;32.50;16.50;;;;;;;7.74;69.26;99719.68;24457;1357;3051264;-72
2021/11/09 05:35:29;;;;;;;38.90;16.90;;;;;;;7.65;69.51;99728.82;24477;1357;3026856;-70
2021/11/09 05:38:00;;;;;;;32.50;15.70;;;;;;;7.61;69.55;99726.73;24469;1356;3027223;-72
2021/11/09 05:40:38;;;;;;;25.90;11.20;;;;;;;7.61;69.81;99724.09;24440;1355;3028142;-71
2021/11/09 05:43:07;;;;;;;25.00;11.70;;;;;;;8.22;68.56;99721.70;24441;1355;3052569;-72
2021/11/09 05:45:36;;;;;;;24.40;11.80;;;;;;;8.68;66.81;99719.73;24462;1355;3027690;-70
2021/11/09 05:48:05;;;;;;;25.10;12.40;;;;;;;8.92;65.88;99717.33;24457;1358;3048694;-71
2021/11/09 05:50:35;;;;;;;27.50;13.50;;;;;;;8.72;65.93;99724.40;24481;1351;3026834;-69
2021/11/09 05:53:03;;;;;;;28.70;13.50;;;;;;;8.60;66.08;99731.65;24476;1356;3026491;-71
2021/11/09 05:55:32;;;;;;;27.50;13.30;;;;;;;8.32;67.02;99734.33;24492;1357;3048829;-70
2021/11/09 05:58:01;;;;;;;25.30;12.20;;;;;;;8.09;67.74;99727.70;24467;1357;3029685;-75
2021/11/09 06:00:30;;;;;;;24.70;13.20;;;;;;;7.92;68.43;99728.48;24469;1359;3053915;-71
2021/11/09 06:02:59;;;;;;;32.20;13.50;;;;;;;7.95;68.46;99728.36;24473;1357;3026653;-72
2021/11/09 06:05:28;;;;;;;28.60;13.20;;;;;;;7.78;69.16;99735.05;24493;1351;3051920;-68
2021/11/09 06:07:57;;;;;;;28.60;12.80;;;;;;;7.79;69.45;99737.97;24508;1360;3026549;-72
2021/11/09 06:10:28;;;;;;;17.90;9.10;;;;;;;7.73;70.01;99746.60;24471;1356;3052731;-71
2021/11/09 06:13:17;;;;;;;27.20;10.40;;;;;;;8.39;68.03;99745.36;24431;1357;3056966;-71
2021/11/09 06:15:46;;;;;;;23.80;9.40;;;;;;;8.90;66.87;99746.22;24488;1358;3028415;-72
2021/11/09 06:18:15;;;;;;;29.60;12.20;;;;;;;8.85;66.10;99747.70;24489;1360;3055318;-74
2021/11/09 06:20:44;;;;;;;26.60;12.40;;;;;;;8.71;66.38;99756.79;24468;1357;3026991;-70
2021/11/09 06:23:13;;;;;;;23.40;10.30;;;;;;;8.53;67.00;99751.52;24469;1357;3049040;-72
2021/11/09 06:25:43;;;;;;;22.90;11.20;;;;;;;8.36;67.12;99744.92;24459;1356;3026976;-70
2021/11/09 06:28:12;;;;;;;24.20;11.60;;;;;;;8.34;67.55;99748.54;24497;1357;3026354;-72
2021/11/09 06:30:41;;;;;;;24.40;10.80;;;;;;;8.20;67.95;99744.81;24479;1357;3048969;-71
2021/11/09 06:33:10;;;;;;;20.00;10.50;;;;;;;8.08;68.34;99744.14;24463;1359;3026571;-70
2021/11/09 06:35:39;;;;;;;25.60;12.00;;;;;;;7.99;68.62;99744.52;24445;1360;3068196;-70
2021/11/09 06:38:09;;;;;;;21.70;10.30;;;;;;;7.98;68.62;99739.21;24457;1358;3028311;-71
2021/11/09 06:40:38;;;;;;;21.40;8.50;;;;;;;7.96;68.74;99738.93;24478;1350;3026849;-69
2021/11/09 06:43:07;;;;;;;20.30;8.70;;;;;;;8.44;67.70;99746.52;24456;1357;3026867;-69
2021/11/09 06:45:36;;;;;;;23.10;9.60;;;;;;;8.86;66.36;99746.29;24468;1357;3051565;-67
2021/11/09 06:48:06;;;;;;;20.00;9.60;;;;;;;9.01;66.02;99732.92;24478;1357;3027974;-70
2021/11/09 06:50:37;;;;;;;23.00;10.70;;;;;;;8.92;65.92;99740.92;24456;1358;3026172;-71
2021/11/09 06:53:06;;;;;;;23.10;10.10;;;;;;;8.72;66.51;99742.57;24488;1357;3030288;-74
2021/11/09 06:55:38;;;;;;;20.80;9.80;;;;;;;8.60;66.75;99748.05;24504;1357;3027497;-74
2021/11/09 06:58:06;;;;;;;23.40;10.90;;;;;;;8.48;67.17;99743.38;24390;1358;3026513;-74
2021/11/09 07:00:36;;;;;;;22.50;10.40;;;;;;;8.48;67.03;99734.98;24468;1351;3026652;-73
2021/11/09 07:03:05;;;;;;;20.30;9.50;;;;;;;8.42;67.59;99743.27;24451;1360;3028858;-72
2021/11/09 07:05:34;;;;;;;20.20;8.90;;;;;;;8.39;67.53;99757.75;24454;1357;3054889;-71
2021/11/09 07:08:04;;;;;;;18.70;8.40;;;;;;;8.29;67.69;99751.02;24463;1357;3026205;-70
2021/11/09 07:10:33;;;;;;;22.60;9.70;;;;;;;8.29;67.86;99751.21;24435;1357;3026430;-69
2021/11/09 07:13:03;;;;;;;18.40;9.10;;;;;;;8.28;67.77;99756.16;24496;1357;3055343;-71
2021/11/09 07:15:32;;;;;;;16.10;6.40;;;;;;;8.19;68.42;99760.72;24500;1355;3026593;-69
2021/11/09 07:18:21;;;;;;;16.90;7.00;;;;;;;8.99;66.60;99765.37;24440;1357;3071477;-72
2021/11/09 07:20:51;;;;;;;15.90;7.50;;;;;;;9.43;64.86;99771.74;24451;1359;3026972;-73
2021/11/09 07:23:20;;;;;;;14.70;7.40;;;;;;;9.26;64.93;99772.93;24485;1357;3026835;-71
2021/11/09 07:25:51;;;;;;;15.30;7.80;;;;;;;8.94;65.85;99774.70;24443;1357;3070790;-71
2021/11/09 07:28:20;;;;;;;14.50;7.70;;;;;;;8.80;66.11;99788.67;24451;1351;3027186;-70
2021/11/09 07:31:01;;;;;;;14.20;8.10;;;;;;;8.68;66.61;99779.61;24468;1357;3026339;-73
2021/11/09 07:33:32;;;;;;;17.30;7.80;;;;;;;8.50;67.32;99774.16;24450;1360;3071078;-69
2021/11/09 07:36:02;;;;;;;12.60;7.00;;;;;;;8.41;67.88;99777.38;24455;1357;3027104;-72
2021/11/09 07:38:32;;;;;;;15.70;7.70;;;;;;;8.33;68.21;99781.21;24446;1357;3026719;-72
2021/11/09 07:41:01;;;;;;;13.10;6.30;;;;;;;8.36;68.10;99785.27;24489;1360;3026521;-69
2021/11/09 07:43:29;;;;;;;14.00;6.80;;;;;;;8.29;68.42;99788.89;24464;1360;3048604;-71
2021/11/09 07:45:59;;;;;;;13.20;6.40;;;;;;;8.22;68.52;99793.27;24482;1357;3026571;-71
2021/11/09 07:48:28;;;;;;;13.70;5.70;;;;;;;8.25;68.56;99802.52;24477;1355;3068603;-69
2021/11/09 07:50:58;;;;;;;14.80;6.00;;;;;;;8.80;67.44;99805.23;24471;1360;3028100;-70
2021/11/09 07:53:31;;;;;;;11.80;6.20;;;;;;;9.33;65.96;99809.48;24473;1359;3026418;-70
2021/11/09 08:01:16;;;;;;;21.30;8.60;;;;;;;8.78;67.42;99815.48;24495;1360;3055057;-69
2021/11/09 08:03:49;;;;;;;20.80;8.40;;;;;;;8.65;68.01;99812.05;24466;1355;3052760;-77
2021/11/09 08:06:26;;;;;;;20.20;9.60;;;;;;;8.68;68.17;99806.67;23776;1361;4353101;-69
2021/11/09 08:09:20;;;;;;;21.50;10.10;;;;;;;8.67;68.19;99805.33;24498;1357;3051647;-74
2021/11/09 08:11:54;;;;;;;30.40;12.30;;;;;;;8.55;68.32;99799.95;24475;1357;3053913;-68
2021/11/09 08:14:24;;;;;;;23.10;10.20;;;;;;;8.63;68.43;99799.07;24493;1362;3026623;-75
2021/11/09 08:16:54;;;;;;;24.90;10.10;;;;;;;8.69;67.68;99797.90;24469;1357;3026894;-71
2021/11/09 08:19:23;;;;;;;25.60;9.70;;;;;;;8.55;67.66;99797.19;24446;1355;3027785;-71
2021/11/09 08:21:54;;;;;;;23.30;9.60;;;;;;;8.58;67.50;99795.63;24486;1356;3026554;-71
2021/11/09 08:24:24;;;;;;;18.80;7.90;;;;;;;8.55;68.16;99792.80;24590;1360;3050032;-70
2021/11/09 08:26:55;;;;;;;21.50;7.90;;;;;;;9.23;66.82;99789.68;24441;1357;3026335;-69
2021/11/09 08:29:27;;;;;;;19.80;7.70;;;;;;;9.94;64.74;99793.45;24479;1363;3028101;-65
2021/11/09 08:31:57;;;;;;;19.10;7.60;;;;;;;9.93;63.67;99814.50;24403;1360;3026634;-74
2021/11/09 08:34:28;;;;;;;18.70;7.10;;;;;;;9.63;63.92;99816.36;24490;1357;3026907;-73
2021/11/09 08:36:59;;;;;;;14.30;6.80;;;;;;;9.58;64.07;99813.14;24478;1357;3027092;-73
2021/11/09 08:39:34;;;;;;;14.20;5.80;;;;;;;9.45;64.15;99810.48;24479;1357;3028356;-67
2021/11/09 08:44:50;;;;;;;8.60;4.80;;;;;;;8.85;64.25;99815.30;24556;1358;3026961;-69
2021/11/09 08:47:26;;;;;;;9.60;5.10;;;;;;;8.70;64.44;99807.83;24488;1351;3053122;-68
2021/11/09 08:49:55;;;;;;;14.40;5.40;;;;;;;8.59;64.76;99817.90;24518;1357;3051937;-72
2021/11/09 08:52:26;;;;;;;9.90;5.40;;;;;;;8.43;65.20;99811.15;24491;1354;3026380;-70
2021/11/09 09:06:07;;;;;;;10.10;5.30;;;;;;;8.84;64.84;99799.62;24544;1356;3054671;-70
2021/11/09 09:08:37;;;;;;;13.20;5.30;;;;;;;8.78;64.61;99795.56;24518;1359;3027049;-72
2021/11/09 09:11:06;;;;;;;12.80;5.50;;;;;;;8.84;64.36;99793.53;24528;1359;3026717;-67
2021/11/09 09:13:36;;;;;;;11.80;5.80;;;;;;;8.82;64.16;99793.95;24520;1354;3026936;-71
2021/11/09 09:16:05;;;;;;;8.60;4.70;;;;;;;8.74;64.66;99790.52;24602;1354;3052359;-70
2021/11/09 09:18:36;;;;;;;9.20;4.70;;;;;;;8.65;64.78;99801.95;24582;1354;3026630;-70
2021/11/09 09:21:29;;;;;;;12.00;4.50;;;;;;;8.62;64.61;99799.81;24513;1354;3029049;-70
2021/11/09 09:24:02;;;;;;;8.80;5.00;;;;;;;8.68;64.35;99798.49;24538;1354;3055723;-75
2021/11/09 09:26:39;;;;;;;8.80;4.90;;;;;;;8.70;64.21;99805.19;24523;1354;3056656;-70
2021/11/09 09:57:17;;;;;;;11.20;4.70;;;;;;;8.36;63.74;99819.46;24534;1355;3051440;-73
2021/11/09 09:59:46;;;;;;;8.00;4.30;;;;;;;8.33;63.10;99822.23;24538;1354;3026083;-72
2021/11/09 10:02:22;;;;;;;10.20;4.80;;;;;;;8.25;63.31;99822.05;24543;1360;3026347;-70
2021/11/09 10:04:54;;;;;;;9.70;4.40;;;;;;;8.27;63.62;99830.20;24485;1354;3056365;-70
2021/11/09 10:07:29;;;;;;;9.10;4.30;;;;;;;8.19;63.99;99832.98;24579;1354;3026427;-68
2021/11/09 10:09:59;;;;;;;9.90;4.40;;;;;;;8.13;64.63;99821.92;24549;1354;3055479;-71
2021/11/09 10:12:32;;;;;;;7.10;3.60;;;;;;;8.17;64.63;99815.29;24544;1359;3026381;-69
2021/11/09 10:15:06;;;;;;;9.90;4.10;;;;;;;8.16;64.33;99808.70;24546;1354;3052775;-72
2021/11/09 10:17:38;;;;;;;9.30;5.00;;;;;;;8.16;63.95;99802.40;24536;1354;3026320;-68
2021/11/09 10:20:17;;;;;;;5.20;3.30;;;;;;;8.16;63.42;99808.87;24526;1358;3026506;-68
2021/11/09 10:22:52;;;;;;;9.00;3.40;;;;;;;8.18;63.14;99807.23;24524;1354;3056058;-70
2021/11/09 10:25:22;;;;;;;7.00;3.20;;;;;;;8.24;62.75;99809.58;24536;1354;3052506;-67
2021/11/09 10:27:55;;;;;;;10.60;3.40;;;;;;;8.20;61.69;99814.09;24503;1354;3026776;-70
2021/11/09 10:30:30;;;;;;;7.00;3.20;;;;;;;8.21;61.09;99806.70;24515;1354;3026838;-69
2021/11/09 10:32:59;;;;;;;8.20;3.60;;;;;;;8.16;60.30;99806.08;24540;1354;3051855;-69
2021/11/09 10:35:28;;;;;;;10.20;3.50;;;;;;;8.17;60.51;99796.61;24570;1358;3028634;-71
2021/11/09 10:38:01;;;;;;;8.20;3.50;;;;;;;8.29;59.92;99813.49;24592;1355;3049014;-71
2021/11/09 10:40:50;;;;;;;9.70;3.50;;;;;;;8.15;60.01;99821.64;24550;1354;3026181;-67
2021/11/09 10:43:22;;;;;;;9.20;3.50;;;;;;;8.24;60.08;99819.52;24506;1358;3053892;-68
2021/11/09 10:45:52;;;;;;;10.90;3.70;;;;;;;8.41;59.68;99822.06;24520;1358;3026543;-67
2021/11/09 10:48:21;;;;;;;8.30;2.80;;;;;;;8.72;59.10;99807.37;24588;1354;3026310;-67
2021/11/09 10:50:55;;;;;;;4.50;2.00;;;;;;;8.79;58.05;99819.95;24513;1354;3026668;-69
2021/11/09 11:04:39;;;;;;;11.70;4.00;;;;;;;8.08;57.26;99821.27;24553;1354;3070654;-72
2021/11/09 11:07:10;;;;;;;8.60;3.90;;;;;;;8.08;57.64;99824.42;24500;1353;3049912;-71
2021/11/09 11:09:40;;;;;;;10.30;3.40;;;;;;;8.03;57.82;99823.04;24487;1357;3026137;-70
2021/11/09 11:12:13;;;;;;;8.70;4.10;;;;;;;8.13;57.79;99823.16;24582;1355;3027409;-68
2021/11/09 11:14:43;;;;;;;16.30;4.50;;;;;;;8.26;57.76;99830.05;24522;1357;3028725;-70
2021/11/09 11:17:15;;;;;;;10.70;4.10;;;;;;;8.27;58.08;99826.84;24520;1354;3031207;-72
2021/11/09 11:19:53;;;;;;;11.00;3.80;;;;;;;8.32;58.11;99827.70;24508;1351;3027364;-73
2021/11/09 11:22:28;;;;;;;9.00;3.50;;;;;;;8.30;58.31;99828.48;24552;1355;3051813;-68
2021/11/09 11:24:59;;;;;;;6.10;2.80;;;;;;;8.27;58.59;99834.54;24495;1354;3028300;-69
2021/11/09 11:27:32;;;;;;;5.50;3.30;;;;;;;8.40;58.57;99836.58;24530;1360;3026780;-69
2021/11/09 11:30:01;;;;;;;5.20;2.20;;;;;;;8.38;57.71;99845.58;24533;1355;3027445;-73
2021/11/09 11:32:31;;;;;;;7.70;2.30;;;;;;;8.19;57.35;99846.96;24500;1355;3026857;-71
2021/11/09 11:35:00;;;;;;;4.80;2.30;;;;;;;8.16;57.18;99856.16;24582;1355;3026518;-72
2021/11/09 11:37:29;;;;;;;4.60;2.10;;;;;;;8.12;57.19;99862.10;24522;1357;3050055;-73
2021/11/09 11:40:04;;;;;;;3.20;1.80;;;;;;;7.80;57.63;99860.67;24547;1354;3028727;-70
2021/11/09 11:42:42;;;;;;;8.40;2.40;;;;;;;7.76;57.67;99852.46;24529;1361;3047464;-68
2021/11/09 11:45:12;;;;;;;4.20;1.90;;;;;;;7.76;57.11;99857.03;24565;1355;3056280;-69
2021/11/09 11:48:01;;;;;;;6.00;1.70;;;;;;;7.63;54.53;99863.67;24533;1354;3028242;-72
2021/11/09 11:50:38;;;;;;;3.10;0.80;;;;;;;7.60;52.37;99867.45;24553;1360;3049405;-70
2021/11/09 11:53:07;;;;;;;2.60;1.00;;;;;;;7.46;49.89;99869.43;24521;1357;3051749;-68
2021/11/09 11:55:39;;;;;;;5.90;1.70;;;;;;;7.49;50.33;99863.73;24502;1354;3026440;-71
2021/11/09 11:58:10;;;;;;;5.60;2.10;;;;;;;7.60;51.24;99871.46;24563;1358;3028886;-68
2021/11/09 12:00:40;;;;;;;6.10;2.90;;;;;;;7.61;51.75;99874.05;24497;1357;3026239;-71
2021/11/09 12:03:21;;;;;;;5.00;2.50;;;;;;;7.48;52.79;99876.52;24499;1354;3026404;-68
2021/11/09 12:06:21;;;;;;;6.50;2.90;;;;;;;7.57;52.71;99878.57;24550;1354;3053847;-71
2021/11/09 12:08:52;;;;;;;9.70;3.30;;;;;;;7.46;52.68;99888.27;24465;1357;3071109;-72
2021/11/09 12:11:24;;;;;;;8.20;3.80;;;;;;;7.50;52.55;99877.29;24496;1354;3026661;-68
2021/11/09 12:14:14;;;;;;;6.20;2.80;;;;;;;7.46;53.00;99888.27;24528;1353;3054757;-69
2021/11/09 12:16:44;;;;;;;9.10;3.00;;;;;;;7.39;53.03;99891.48;24532;1354;3028623;-68
2021/11/09 12:19:35;;;;;;;6.60;2.20;;;;;;;7.42;52.87;99899.40;24562;1355;3026656;-69
2021/11/09 12:22:08;;;;;;;10.90;3.00;;;;;;;7.36;52.63;99895.60;24518;1359;3051847;-70
2021/11/09 12:24:58;;;;;;;6.90;2.00;;;;;;;7.34;51.26;99899.04;24638;1361;3026463;-73
2021/11/09 12:27:51;;;;;;;6.30;2.10;;;;;;;7.28;50.20;99897.34;25307;1354;3051304;-70
2021/11/09 12:30:43;;;;;;;6.80;2.30;;;;;;;7.13;49.06;99898.08;24517;1355;3068165;-69
2021/11/09 12:33:18;;;;;;;8.10;2.10;;;;;;;7.04;48.86;99904.40;24472;1357;3048813;-66
2021/11/09 12:36:03;;;;;;;5.50;1.80;;;;;;;6.92;49.46;99909.57;24477;1354;3054496;-67
2021/11/09 12:38:43;;;;;;;3.00;1.20;;;;;;;6.80;49.98;99900.79;24500;1351;3054333;-68
2021/11/09 12:41:13;;;;;;;3.30;1.00;;;;;;;6.73;50.42;99905.90;24479;1356;3054879;-71
2021/11/09 12:44:04;;;;;;;4.40;1.50;;;;;;;6.58;51.21;99924.04;24501;1354;3026788;-70
2021/11/09 12:46:38;;;;;;;9.60;1.30;;;;;;;6.61;51.70;99933.70;24516;1359;3057564;-73
2021/11/09 12:49:26;;;;;;;2.30;1.30;;;;;;;6.69;52.27;99922.61;24488;1354;3053930;-68
2021/11/09 12:51:55;;;;;;;4.80;1.20;;;;;;;6.66;52.97;99928.62;24451;1358;3071488;-67
2021/11/09 12:54:28;;;;;;;3.10;1.40;;;;;;;6.71;53.56;99921.66;24476;1351;3026911;-68
2021/11/09 12:57:02;;;;;;;1.90;0.90;;;;;;;6.64;54.05;99924.55;24488;1358;3027082;-69
2021/11/09 12:59:43;;;;;;;3.50;1.40;;;;;;;6.50;54.88;99930.41;24495;1358;3055925;-70
2021/11/09 13:02:17;;;;;;;3.70;1.40;;;;;;;6.43;55.35;99941.66;24500;1361;3059015;-66
2021/11/09 13:04:50;;;;;;;2.30;1.20;;;;;;;6.39;55.96;99935.02;24510;1355;3052780;-68
2021/11/09 13:07:32;;;;;;;4.30;1.60;;;;;;;6.27;56.66;99938.90;24492;1357;3054640;-70
2021/11/09 13:10:24;;;;;;;3.10;1.50;;;;;;;6.33;56.95;99937.30;24497;1354;3051330;-73
2021/11/09 13:12:54;;;;;;;6.20;2.10;;;;;;;6.41;57.10;99940.52;24473;1354;3026675;-73
2021/11/09 13:15:23;;;;;;;2.90;1.60;;;;;;;6.50;57.02;99945.55;24483;1354;3030191;-69
2021/11/09 13:18:01;;;;;;;3.40;1.90;;;;;;;6.33;57.49;99947.73;24495;1354;3026726;-69
2021/11/09 13:23:05;;;;;;;6.50;1.80;;;;;;;6.33;57.97;99954.53;24496;1354;3026340;-72
2021/11/09 13:25:37;;;;;;;;;;;;;;;6.37;58.13;99959.42;24502;1355;3054151;-73
2021/11/09 13:28:34;;;;;;;5.90;2.40;;;;;;;6.23;58.34;99968.63;24520;1354;3026439;-69
2021/11/09 13:31:09;;;;;;;6.40;2.10;;;;;;;6.15;58.34;99968.90;24478;1360;3058677;-73
2021/11/09 13:33:41;;;;;;;6.20;2.00;;;;;;;6.04;56.78;99973.42;24477;1346;3049788;-68
2021/11/09 13:36:22;;;;;;;8.70;1.80;;;;;;;6.13;56.85;99969.47;24530;1354;3055946;-71
2021/11/09 13:38:52;;;;;;;4.10;1.50;;;;;;;6.22;56.52;99976.64;24483;1354;3052730;-66
2021/11/09 13:41:28;;;;;;;4.50;1.60;;;;;;;6.15;55.77;99988.73;24472;1351;3027294;-70
2021/11/09 13:44:06;;;;;;;1.90;1.10;;;;;;;6.15;55.23;99990.11;24457;1355;3049364;-67
2021/11/09 13:46:38;;;;;;;3.30;1.20;;;;;;;5.94;54.03;99988.55;24450;1356;3052639;-70
2021/11/09 13:49:17;;;;;;;3.60;1.50;;;;;;;5.86;54.48;99994.52;24492;1354;3026806;-72
2021/11/09 13:51:55;;;;;;;3.10;1.30;;;;;;;5.72;54.29;99997.60;24507;1357;3059303;-71
2021/11/09 13:54:29;;;;;;;5.90;1.80;;;;;;;5.60;53.98;100003.52;24479;1358;3049552;-72
2021/11/09 13:56:59;;;;;;;5.50;2.10;;;;;;;5.52;54.28;99993.68;24466;1360;3052731;-74
2021/11/09 13:59:33;;;;;;;4.40;2.10;;;;;;;5.60;54.10;99994.13;24462;1360;3027103;-70
2021/11/09 14:02:17;;;;;;;5.00;1.60;;;;;;;5.57;54.29;100000.48;24473;1354;3070410;-69
2021/11/09 14:05:32;;;;;;;3.50;1.50;;;;;;;5.48;54.46;100000.09;24471;1358;3049073;-72
2021/11/09 14:08:04;;;;;;;6.50;1.50;;;;;;;5.44;54.88;100005.58;24500;1355;3054959;-71
2021/11/09 14:18:18;;;;;;;6.90;2.60;;;;;;;5.37;55.50;100013.08;24472;1351;3051992;-70
2021/11/09 14:20:55;;;;;;;8.40;3.60;;;;;;;5.33;55.87;100022.44;24470;1354;3026627;-69
2021/11/09 14:23:32;;;;;;;12.40;3.90;;;;;;;5.34;56.04;100028.27;24453;1355;3052007;-73
2021/11/09 14:26:22;;;;;;;4.20;1.80;;;;;;;5.26;56.39;100030.96;24423;1354;3056016;-72
2021/11/09 14:28:54;;;;;;;10.00;2.60;;;;;;;5.04;56.72;100031.42;24440;1354;3052627;-73